sensor_id;sensor_type;location;lat;lon;timestamp;temperature;humidity
67641;SHT31;54434;50.096;20.082;2022-10-17T00:00:22;10.09;85.56
67641;SHT31;54434;50.096;20.082;2022-10-17T00:03:18;10.09;85.72
67641;SHT31;54434;50.096;20.082;2022-10-17T00:05:54;10.10;85.88
67641;SHT31;54434;50.096;20.082;2022-10-17T00:08:30;10.09;85.86
67641;SHT31;54434;50.096;20.082;2022-10-17T00:11:08;10.07;85.80
67641;SHT31;54434;50.096;20.082;2022-10-17T00:13:50;10.06;85.80
67641;SHT31;54434;50.096;20.082;2022-10-17T00:16:29;10.05;85.81
67641;SHT31;54434;50.096;20.082;2022-10-17T00:19:07;10.03;85.84
67641;SHT31;54434;50.096;20.082;2022-10-17T00:21:44;10.03;85.74
67641;SHT31;54434;50.096;20.082;2022-10-17T00:24:21;10.00;85.62
67641;SHT31;54434;50.096;20.082;2022-10-17T00:26:57;9.98;85.63
67641;SHT31;54434;50.096;20.082;2022-10-17T00:29:33;9.98;85.73
67641;SHT31;54434;50.096;20.082;2022-10-17T00:32:09;9.98;85.78
67641;SHT31;54434;50.096;20.082;2022-10-17T00:34:45;9.97;85.80
67641;SHT31;54434;50.096;20.082;2022-10-17T00:37:21;9.96;85.93
67641;SHT31;54434;50.096;20.082;2022-10-17T00:39:57;9.94;86.02
67641;SHT31;54434;50.096;20.082;2022-10-17T00:42:33;9.92;86.00
67641;SHT31;54434;50.096;20.082;2022-10-17T00:45:17;9.92;86.08
67641;SHT31;54434;50.096;20.082;2022-10-17T00:47:59;9.92;86.16
67641;SHT31;54434;50.096;20.082;2022-10-17T00:50:43;9.92;86.14
67641;SHT31;54434;50.096;20.082;2022-10-17T00:53:21;9.90;86.17
67641;SHT31;54434;50.096;20.082;2022-10-17T00:55:57;9.89;86.22
67641;SHT31;54434;50.096;20.082;2022-10-17T00:58:34;9.91;86.45
67641;SHT31;54434;50.096;20.082;2022-10-17T01:01:10;9.93;86.69
67641;SHT31;54434;50.096;20.082;2022-10-17T01:03:46;9.91;86.80
67641;SHT31;54434;50.096;20.082;2022-10-17T01:06:22;9.90;86.87
67641;SHT31;54434;50.096;20.082;2022-10-17T01:08:58;9.91;86.89
67641;SHT31;54434;50.096;20.082;2022-10-17T01:11:37;9.91;86.90
67641;SHT31;54434;50.096;20.082;2022-10-17T01:14:23;9.91;86.90
67641;SHT31;54434;50.096;20.082;2022-10-17T01:17:14;9.91;86.81
67641;SHT31;54434;50.096;20.082;2022-10-17T01:27:53;9.86;86.61
67641;SHT31;54434;50.096;20.082;2022-10-17T01:31:06;9.84;86.54
67641;SHT31;54434;50.096;20.082;2022-10-17T01:33:50;9.81;86.50
67641;SHT31;54434;50.096;20.082;2022-10-17T01:36:38;9.82;86.54
67641;SHT31;54434;50.096;20.082;2022-10-17T01:39:28;9.81;86.63
67641;SHT31;54434;50.096;20.082;2022-10-17T01:42:18;9.80;86.60
67641;SHT31;54434;50.096;20.082;2022-10-17T01:45:02;9.78;86.60
67641;SHT31;54434;50.096;20.082;2022-10-17T01:47:47;9.76;86.61
67641;SHT31;54434;50.096;20.082;2022-10-17T01:50:30;9.73;86.61
67641;SHT31;54434;50.096;20.082;2022-10-17T01:53:11;9.73;86.61
67641;SHT31;54434;50.096;20.082;2022-10-17T01:55:55;9.72;86.59
67641;SHT31;54434;50.096;20.082;2022-10-17T01:58:35;9.72;86.46
67641;SHT31;54434;50.096;20.082;2022-10-17T02:01:21;9.71;86.32
67641;SHT31;54434;50.096;20.082;2022-10-17T02:04:03;9.72;86.30
67641;SHT31;54434;50.096;20.082;2022-10-17T02:06:42;9.70;86.30
67641;SHT31;54434;50.096;20.082;2022-10-17T02:09:20;9.68;86.23
67641;SHT31;54434;50.096;20.082;2022-10-17T02:12:09;9.65;86.20
67641;SHT31;54434;50.096;20.082;2022-10-17T02:15:08;9.62;86.29
67641;SHT31;54434;50.096;20.082;2022-10-17T02:17:53;9.57;86.31
67641;SHT31;54434;50.096;20.082;2022-10-17T02:20:50;9.56;86.34
67641;SHT31;54434;50.096;20.082;2022-10-17T02:23:36;9.55;86.39
67641;SHT31;54434;50.096;20.082;2022-10-17T02:26:25;9.54;86.40
67641;SHT31;54434;50.096;20.082;2022-10-17T02:29:12;9.51;86.42
67641;SHT31;54434;50.096;20.082;2022-10-17T02:31:53;9.49;86.42
67641;SHT31;54434;50.096;20.082;2022-10-17T02:34:37;9.46;86.40
67641;SHT31;54434;50.096;20.082;2022-10-17T02:37:20;9.44;86.36
67641;SHT31;54434;50.096;20.082;2022-10-17T02:40:02;9.40;86.20
67641;SHT31;54434;50.096;20.082;2022-10-17T02:42:42;9.36;86.17
67641;SHT31;54434;50.096;20.082;2022-10-17T02:45:19;9.34;86.20
67641;SHT31;54434;50.096;20.082;2022-10-17T02:48:01;9.31;86.26
67641;SHT31;54434;50.096;20.082;2022-10-17T02:50:45;9.28;86.29
67641;SHT31;54434;50.096;20.082;2022-10-17T02:53:37;9.27;86.31
67641;SHT31;54434;50.096;20.082;2022-10-17T02:56:20;9.23;86.33
67641;SHT31;54434;50.096;20.082;2022-10-17T02:59:00;9.20;86.40
67641;SHT31;54434;50.096;20.082;2022-10-17T03:01:40;9.19;86.40
67641;SHT31;54434;50.096;20.082;2022-10-17T03:04:17;9.16;86.47
67641;SHT31;54434;50.096;20.082;2022-10-17T03:06:53;9.14;86.42
67641;SHT31;54434;50.096;20.082;2022-10-17T03:09:29;9.09;86.39
67641;SHT31;54434;50.096;20.082;2022-10-17T03:12:05;9.04;86.44
67641;SHT31;54434;50.096;20.082;2022-10-17T03:14:41;9.00;86.33
67641;SHT31;54434;50.096;20.082;2022-10-17T03:17:17;8.98;86.30
67641;SHT31;54434;50.096;20.082;2022-10-17T03:19:53;8.96;86.39
67641;SHT31;54434;50.096;20.082;2022-10-17T03:22:29;8.95;86.48
67641;SHT31;54434;50.096;20.082;2022-10-17T03:25:07;8.93;86.50
67641;SHT31;54434;50.096;20.082;2022-10-17T03:27:43;8.90;86.50
67641;SHT31;54434;50.096;20.082;2022-10-17T03:30:19;8.86;86.50
67641;SHT31;54434;50.096;20.082;2022-10-17T03:32:55;8.84;86.62
67641;SHT31;54434;50.096;20.082;2022-10-17T03:35:32;8.83;86.75
67641;SHT31;54434;50.096;20.082;2022-10-17T03:38:11;8.81;86.86
67641;SHT31;54434;50.096;20.082;2022-10-17T03:40:54;8.80;86.72
67641;SHT31;54434;50.096;20.082;2022-10-17T03:43:30;8.79;86.70
67641;SHT31;54434;50.096;20.082;2022-10-17T03:46:06;8.76;86.62
67641;SHT31;54434;50.096;20.082;2022-10-17T03:48:43;8.72;86.60
67641;SHT31;54434;50.096;20.082;2022-10-17T03:51:19;8.69;86.64
67641;SHT31;54434;50.096;20.082;2022-10-17T03:53:59;8.66;86.70
67641;SHT31;54434;50.096;20.082;2022-10-17T03:56:36;8.64;86.78
67641;SHT31;54434;50.096;20.082;2022-10-17T03:59:15;8.62;86.85
67641;SHT31;54434;50.096;20.082;2022-10-17T04:02:02;8.62;86.90
67641;SHT31;54434;50.096;20.082;2022-10-17T04:04:38;8.60;86.77
67641;SHT31;54434;50.096;20.082;2022-10-17T04:07:14;8.56;86.72
67641;SHT31;54434;50.096;20.082;2022-10-17T04:09:51;8.53;86.80
67641;SHT31;54434;50.096;20.082;2022-10-17T04:12:27;8.52;86.80
67641;SHT31;54434;50.096;20.082;2022-10-17T04:15:04;8.48;86.70
67641;SHT31;54434;50.096;20.082;2022-10-17T04:17:42;8.46;86.62
67641;SHT31;54434;50.096;20.082;2022-10-17T04:20:20;8.43;86.81
67641;SHT31;54434;50.096;20.082;2022-10-17T04:22:56;8.43;86.94
67641;SHT31;54434;50.096;20.082;2022-10-17T04:25:32;8.40;86.90
67641;SHT31;54434;50.096;20.082;2022-10-17T04:28:08;8.39;86.92
67641;SHT31;54434;50.096;20.082;2022-10-17T04:30:45;8.37;86.88
67641;SHT31;54434;50.096;20.082;2022-10-17T04:33:27;8.33;86.84
67641;SHT31;54434;50.096;20.082;2022-10-17T04:36:06;8.31;86.86
67641;SHT31;54434;50.096;20.082;2022-10-17T04:38:46;8.29;86.90
67641;SHT31;54434;50.096;20.082;2022-10-17T04:41:22;8.28;86.89
67641;SHT31;54434;50.096;20.082;2022-10-17T04:43:58;8.27;86.87
67641;SHT31;54434;50.096;20.082;2022-10-17T04:46:36;8.27;86.86
67641;SHT31;54434;50.096;20.082;2022-10-17T04:49:12;8.26;86.86
67641;SHT31;54434;50.096;20.082;2022-10-17T04:51:50;8.23;86.81
67641;SHT31;54434;50.096;20.082;2022-10-17T04:54:41;8.23;86.86
67641;SHT31;54434;50.096;20.082;2022-10-17T04:57:17;8.22;86.84
67641;SHT31;54434;50.096;20.082;2022-10-17T05:00:08;8.21;86.90
67641;SHT31;54434;50.096;20.082;2022-10-17T05:03:01;8.18;86.96
67641;SHT31;54434;50.096;20.082;2022-10-17T05:05:39;8.16;86.97
67641;SHT31;54434;50.096;20.082;2022-10-17T05:08:15;8.16;87.06
67641;SHT31;54434;50.096;20.082;2022-10-17T05:10:51;8.15;87.00
67641;SHT31;54434;50.096;20.082;2022-10-17T05:13:27;8.09;86.93
67641;SHT31;54434;50.096;20.082;2022-10-17T05:16:04;8.07;86.93
67641;SHT31;54434;50.096;20.082;2022-10-17T05:18:41;8.10;86.96
67641;SHT31;54434;50.096;20.082;2022-10-17T05:21:24;8.13;87.08
67641;SHT31;54434;50.096;20.082;2022-10-17T05:24:07;8.13;87.01
67641;SHT31;54434;50.096;20.082;2022-10-17T05:26:46;8.15;87.24
67641;SHT31;54434;50.096;20.082;2022-10-17T05:29:24;8.19;87.31
67641;SHT31;54434;50.096;20.082;2022-10-17T05:32:07;8.23;87.30
67641;SHT31;54434;50.096;20.082;2022-10-17T05:34:43;8.27;87.22
67641;SHT31;54434;50.096;20.082;2022-10-17T05:37:24;8.31;87.16
67641;SHT31;54434;50.096;20.082;2022-10-17T05:40:03;8.35;87.15
67641;SHT31;54434;50.096;20.082;2022-10-17T05:42:44;8.40;87.24
67641;SHT31;54434;50.096;20.082;2022-10-17T05:45:20;8.42;87.10
67641;SHT31;54434;50.096;20.082;2022-10-17T05:47:56;8.46;87.08
67641;SHT31;54434;50.096;20.082;2022-10-17T05:50:32;8.52;87.10
67641;SHT31;54434;50.096;20.082;2022-10-17T05:53:15;8.57;87.04
67641;SHT31;54434;50.096;20.082;2022-10-17T05:55:57;8.63;87.15
67641;SHT31;54434;50.096;20.082;2022-10-17T05:58:38;8.70;86.97
67641;SHT31;54434;50.096;20.082;2022-10-17T06:01:31;8.82;86.95
67641;SHT31;54434;50.096;20.082;2022-10-17T06:04:07;8.94;87.02
67641;SHT31;54434;50.096;20.082;2022-10-17T06:06:44;9.04;86.91
67641;SHT31;54434;50.096;20.082;2022-10-17T06:09:20;9.15;86.90
67641;SHT31;54434;50.096;20.082;2022-10-17T06:11:58;9.28;86.94
67641;SHT31;54434;50.096;20.082;2022-10-17T06:14:34;9.42;87.12
67641;SHT31;54434;50.096;20.082;2022-10-17T06:17:10;9.57;87.20
67641;SHT31;54434;50.096;20.082;2022-10-17T06:19:47;9.71;87.12
67641;SHT31;54434;50.096;20.082;2022-10-17T06:22:23;9.88;87.24
67641;SHT31;54434;50.096;20.082;2022-10-17T06:24:59;10.02;87.14
67641;SHT31;54434;50.096;20.082;2022-10-17T06:27:36;10.20;87.29
67641;SHT31;54434;50.096;20.082;2022-10-17T06:30:14;10.39;87.40
67641;SHT31;54434;50.096;20.082;2022-10-17T06:32:50;10.59;87.51
67641;SHT31;54434;50.096;20.082;2022-10-17T06:35:26;10.80;87.59
67641;SHT31;54434;50.096;20.082;2022-10-17T06:38:06;11.02;87.58
67641;SHT31;54434;50.096;20.082;2022-10-17T06:40:44;11.23;87.53
67641;SHT31;54434;50.096;20.082;2022-10-17T06:43:20;11.47;87.31
67641;SHT31;54434;50.096;20.082;2022-10-17T06:46:41;11.89;87.11
67641;SHT31;54434;50.096;20.082;2022-10-17T06:49:20;12.35;86.65
67641;SHT31;54434;50.096;20.082;2022-10-17T06:52:15;12.93;85.52
67641;SHT31;54434;50.096;20.082;2022-10-17T06:55:17;13.53;84.24
67641;SHT31;54434;50.096;20.082;2022-10-17T06:58:05;14.01;83.17
67641;SHT31;54434;50.096;20.082;2022-10-17T07:01:25;14.50;82.17
67641;SHT31;54434;50.096;20.082;2022-10-17T07:04:03;14.91;81.15
67641;SHT31;54434;50.096;20.082;2022-10-17T07:06:39;15.35;80.10
67641;SHT31;54434;50.096;20.082;2022-10-17T07:09:21;15.75;79.24
67641;SHT31;54434;50.096;20.082;2022-10-17T07:12:01;16.22;78.58
67641;SHT31;54434;50.096;20.082;2022-10-17T07:14:38;16.73;78.12
67641;SHT31;54434;50.096;20.082;2022-10-17T07:17:17;17.19;76.12
67641;SHT31;54434;50.096;20.082;2022-10-17T07:19:53;17.55;74.79
67641;SHT31;54434;50.096;20.082;2022-10-17T07:22:29;17.85;73.60
67641;SHT31;54434;50.096;20.082;2022-10-17T07:25:07;18.19;72.37
67641;SHT31;54434;50.096;20.082;2022-10-17T07:27:52;18.63;71.70
67641;SHT31;54434;50.096;20.082;2022-10-17T07:30:28;19.01;70.66
67641;SHT31;54434;50.096;20.082;2022-10-17T07:33:08;19.36;69.14
67641;SHT31;54434;50.096;20.082;2022-10-17T07:35:44;19.70;67.49
67641;SHT31;54434;50.096;20.082;2022-10-17T07:38:22;19.98;66.10
67641;SHT31;54434;50.096;20.082;2022-10-17T07:41:02;20.24;65.34
67641;SHT31;54434;50.096;20.082;2022-10-17T07:43:41;20.51;64.65
67641;SHT31;54434;50.096;20.082;2022-10-17T07:46:19;20.75;63.60
67641;SHT31;54434;50.096;20.082;2022-10-17T07:48:55;21.04;63.10
67641;SHT31;54434;50.096;20.082;2022-10-17T07:51:31;21.25;61.83
67641;SHT31;54434;50.096;20.082;2022-10-17T07:54:07;21.36;61.12
67641;SHT31;54434;50.096;20.082;2022-10-17T07:56:44;21.55;60.31
67641;SHT31;54434;50.096;20.082;2022-10-17T07:59:21;21.59;60.12
67641;SHT31;54434;50.096;20.082;2022-10-17T08:01:57;21.79;59.83
67641;SHT31;54434;50.096;20.082;2022-10-17T08:04:34;21.83;58.64
67641;SHT31;54434;50.096;20.082;2022-10-17T08:07:10;21.90;58.37
67641;SHT31;54434;50.096;20.082;2022-10-17T08:09:57;22.13;59.06
67641;SHT31;54434;50.096;20.082;2022-10-17T08:12:33;22.40;58.44
67641;SHT31;54434;50.096;20.082;2022-10-17T08:15:10;22.64;57.37
67641;SHT31;54434;50.096;20.082;2022-10-17T08:17:46;22.76;56.60
67641;SHT31;54434;50.096;20.082;2022-10-17T08:20:23;22.86;55.92
67641;SHT31;54434;50.096;20.082;2022-10-17T08:22:58;23.02;54.93
67641;SHT31;54434;50.096;20.082;2022-10-17T08:25:34;23.10;54.54
67641;SHT31;54434;50.096;20.082;2022-10-17T08:28:12;23.18;54.16
67641;SHT31;54434;50.096;20.082;2022-10-17T08:30:48;23.31;53.81
67641;SHT31;54434;50.096;20.082;2022-10-17T08:33:24;23.30;53.16
67641;SHT31;54434;50.096;20.082;2022-10-17T08:36:01;23.23;53.36
67641;SHT31;54434;50.096;20.082;2022-10-17T08:38:39;23.15;52.81
67641;SHT31;54434;50.096;20.082;2022-10-17T08:41:33;23.15;53.28
67641;SHT31;54434;50.096;20.082;2022-10-17T08:44:27;23.15;53.25
67641;SHT31;54434;50.096;20.082;2022-10-17T08:47:28;23.15;53.13
67641;SHT31;54434;50.096;20.082;2022-10-17T08:50:13;23.09;52.11
67641;SHT31;54434;50.096;20.082;2022-10-17T08:52:59;23.02;52.90
67641;SHT31;54434;50.096;20.082;2022-10-17T08:55:45;23.03;53.07
67641;SHT31;54434;50.096;20.082;2022-10-17T08:58:26;23.05;52.94
67641;SHT31;54434;50.096;20.082;2022-10-17T09:01:08;23.06;51.91
67641;SHT31;54434;50.096;20.082;2022-10-17T09:04:13;22.95;51.93
67641;SHT31;54434;50.096;20.082;2022-10-17T09:07:24;22.94;51.98
67641;SHT31;54434;50.096;20.082;2022-10-17T09:10:13;22.90;51.99
67641;SHT31;54434;50.096;20.082;2022-10-17T09:13:08;22.90;52.34
67641;SHT31;54434;50.096;20.082;2022-10-17T09:16:06;22.88;52.56
67641;SHT31;54434;50.096;20.082;2022-10-17T09:19:11;22.85;52.69
67641;SHT31;54434;50.096;20.082;2022-10-17T09:21:56;22.87;51.51
67641;SHT31;54434;50.096;20.082;2022-10-17T09:24:41;22.87;51.86
67641;SHT31;54434;50.096;20.082;2022-10-17T09:27:23;22.81;52.19
67641;SHT31;54434;50.096;20.082;2022-10-17T09:33:18;22.88;52.77
67641;SHT31;54434;50.096;20.082;2022-10-17T09:36:10;22.88;52.57
67641;SHT31;54434;50.096;20.082;2022-10-17T09:38:51;22.88;52.60
67641;SHT31;54434;50.096;20.082;2022-10-17T09:41:33;22.88;52.63
67641;SHT31;54434;50.096;20.082;2022-10-17T09:44:34;22.89;52.49
67641;SHT31;54434;50.096;20.082;2022-10-17T09:47:27;22.91;52.01
67641;SHT31;54434;50.096;20.082;2022-10-17T09:50:09;22.94;52.68
67641;SHT31;54434;50.096;20.082;2022-10-17T09:52:57;22.98;52.29
67641;SHT31;54434;50.096;20.082;2022-10-17T09:55:42;23.00;52.32
67641;SHT31;54434;50.096;20.082;2022-10-17T09:58:21;22.98;51.61
67641;SHT31;54434;50.096;20.082;2022-10-17T10:01:18;22.98;52.03
67641;SHT31;54434;50.096;20.082;2022-10-17T10:04:11;23.01;51.94
67641;SHT31;54434;50.096;20.082;2022-10-17T10:07:03;23.03;51.47
67641;SHT31;54434;50.096;20.082;2022-10-17T10:09:46;22.98;50.58
67641;SHT31;54434;50.096;20.082;2022-10-17T10:12:24;22.94;51.01
67641;SHT31;54434;50.096;20.082;2022-10-17T10:15:04;22.95;51.48
67641;SHT31;54434;50.096;20.082;2022-10-17T10:18:33;23.00;52.04
67641;SHT31;54434;50.096;20.082;2022-10-17T10:21:11;23.02;51.68
67641;SHT31;54434;50.096;20.082;2022-10-17T10:24:10;23.02;51.69
67641;SHT31;54434;50.096;20.082;2022-10-17T10:26:46;23.03;51.52
67641;SHT31;54434;50.096;20.082;2022-10-17T10:29:29;23.04;51.14
67641;SHT31;54434;50.096;20.082;2022-10-17T10:32:10;23.00;51.00
67641;SHT31;54434;50.096;20.082;2022-10-17T10:34:55;23.00;51.50
67641;SHT31;54434;50.096;20.082;2022-10-17T10:37:36;23.02;51.92
67641;SHT31;54434;50.096;20.082;2022-10-17T10:40:18;23.03;51.63
67641;SHT31;54434;50.096;20.082;2022-10-17T10:42:58;23.01;51.61
67641;SHT31;54434;50.096;20.082;2022-10-17T10:45:42;23.03;51.42
67641;SHT31;54434;50.096;20.082;2022-10-17T10:48:22;23.06;51.45
67641;SHT31;54434;50.096;20.082;2022-10-17T10:51:03;23.08;51.18
67641;SHT31;54434;50.096;20.082;2022-10-17T10:53:47;23.10;50.83
67641;SHT31;54434;50.096;20.082;2022-10-17T10:56:32;23.09;50.46
67641;SHT31;54434;50.096;20.082;2022-10-17T10:59:16;23.11;51.58
67641;SHT31;54434;50.096;20.082;2022-10-17T11:02:01;23.11;51.70
67641;SHT31;54434;50.096;20.082;2022-10-17T11:04:48;23.14;51.83
67641;SHT31;54434;50.096;20.082;2022-10-17T11:07:32;23.13;51.53
67641;SHT31;54434;50.096;20.082;2022-10-17T11:10:20;23.15;51.77
67641;SHT31;54434;50.096;20.082;2022-10-17T11:13:05;23.14;51.54
67641;SHT31;54434;50.096;20.082;2022-10-17T11:15:48;23.14;51.25
67641;SHT31;54434;50.096;20.082;2022-10-17T11:18:37;23.16;51.40
67641;SHT31;54434;50.096;20.082;2022-10-17T11:21:22;23.17;51.90
67641;SHT31;54434;50.096;20.082;2022-10-17T11:24:17;23.15;51.19
67641;SHT31;54434;50.096;20.082;2022-10-17T11:27:02;23.16;51.77
67641;SHT31;54434;50.096;20.082;2022-10-17T11:29:40;23.18;51.99
67641;SHT31;54434;50.096;20.082;2022-10-17T11:32:21;23.21;50.70
67641;SHT31;54434;50.096;20.082;2022-10-17T11:35:05;23.19;50.65
67641;SHT31;54434;50.096;20.082;2022-10-17T11:37:54;23.19;50.74
67641;SHT31;54434;50.096;20.082;2022-10-17T11:40:48;23.19;51.17
67641;SHT31;54434;50.096;20.082;2022-10-17T11:43:29;23.20;50.75
67641;SHT31;54434;50.096;20.082;2022-10-17T11:46:14;23.18;51.44
67641;SHT31;54434;50.096;20.082;2022-10-17T11:49:00;23.16;51.16
67641;SHT31;54434;50.096;20.082;2022-10-17T11:51:53;23.16;51.09
67641;SHT31;54434;50.096;20.082;2022-10-17T11:54:40;23.17;51.02
67641;SHT31;54434;50.096;20.082;2022-10-17T11:57:36;23.15;51.31
67641;SHT31;54434;50.096;20.082;2022-10-17T12:00:33;23.16;51.61
67641;SHT31;54434;50.096;20.082;2022-10-17T12:03:28;23.15;51.73
67641;SHT31;54434;50.096;20.082;2022-10-17T12:06:29;23.17;51.28
67641;SHT31;54434;50.096;20.082;2022-10-17T12:09:22;23.17;51.66
67641;SHT31;54434;50.096;20.082;2022-10-17T12:12:11;23.16;52.21
67641;SHT31;54434;50.096;20.082;2022-10-17T12:15:27;23.18;51.72
67641;SHT31;54434;50.096;20.082;2022-10-17T12:18:07;23.20;50.17
67641;SHT31;54434;50.096;20.082;2022-10-17T12:20:56;23.24;51.33
67641;SHT31;54434;50.096;20.082;2022-10-17T12:23:32;23.24;51.40
67641;SHT31;54434;50.096;20.082;2022-10-17T12:26:10;23.24;51.48
67641;SHT31;54434;50.096;20.082;2022-10-17T12:29:01;23.24;51.45
67641;SHT31;54434;50.096;20.082;2022-10-17T12:31:54;23.25;51.31
67641;SHT31;54434;50.096;20.082;2022-10-17T12:34:53;23.27;50.78
67641;SHT31;54434;50.096;20.082;2022-10-17T12:38:02;23.28;50.65
67641;SHT31;54434;50.096;20.082;2022-10-17T12:41:01;23.28;51.59
67641;SHT31;54434;50.096;20.082;2022-10-17T12:43:55;23.28;51.97
67641;SHT31;54434;50.096;20.082;2022-10-17T12:46:45;23.31;51.33
67641;SHT31;54434;50.096;20.082;2022-10-17T12:49:40;23.35;51.37
67641;SHT31;54434;50.096;20.082;2022-10-17T12:52:25;23.37;50.22
67641;SHT31;54434;50.096;20.082;2022-10-17T12:55:32;23.42;49.88
67641;SHT31;54434;50.096;20.082;2022-10-17T12:58:12;23.45;49.64
67641;SHT31;54434;50.096;20.082;2022-10-17T13:00:51;23.47;49.83
67641;SHT31;54434;50.096;20.082;2022-10-17T13:03:50;23.46;50.57
67641;SHT31;54434;50.096;20.082;2022-10-17T13:06:29;23.46;50.24
67641;SHT31;54434;50.096;20.082;2022-10-17T13:09:29;23.47;50.32
67641;SHT31;54434;50.096;20.082;2022-10-17T13:12:11;23.46;50.72
67641;SHT31;54434;50.096;20.082;2022-10-17T13:14:55;23.44;50.96
67641;SHT31;54434;50.096;20.082;2022-10-17T13:17:35;23.44;50.69
67641;SHT31;54434;50.096;20.082;2022-10-17T13:20:21;23.42;51.01
67641;SHT31;54434;50.096;20.082;2022-10-17T13:23:02;23.41;50.56
67641;SHT31;54434;50.096;20.082;2022-10-17T13:25:38;23.42;50.85
67641;SHT31;54434;50.096;20.082;2022-10-17T13:28:14;23.40;50.40
67641;SHT31;54434;50.096;20.082;2022-10-17T13:30:49;23.41;50.56
67641;SHT31;54434;50.096;20.082;2022-10-17T13:33:33;23.39;50.60
67641;SHT31;54434;50.096;20.082;2022-10-17T13:36:15;23.40;50.82
67641;SHT31;54434;50.096;20.082;2022-10-17T13:38:51;23.39;49.78
67641;SHT31;54434;50.096;20.082;2022-10-17T13:41:29;23.38;49.11
67641;SHT31;54434;50.096;20.082;2022-10-17T13:44:15;23.39;50.15
67641;SHT31;54434;50.096;20.082;2022-10-17T13:46:54;23.35;50.40
67641;SHT31;54434;50.096;20.082;2022-10-17T13:49:33;23.30;50.93
67641;SHT31;54434;50.096;20.082;2022-10-17T13:52:17;23.28;51.24
67641;SHT31;54434;50.096;20.082;2022-10-17T13:55:08;23.27;50.63
67641;SHT31;54434;50.096;20.082;2022-10-17T13:57:50;23.26;50.07
67641;SHT31;54434;50.096;20.082;2022-10-17T14:00:26;23.25;50.30
67641;SHT31;54434;50.096;20.082;2022-10-17T14:03:02;23.23;50.42
67641;SHT31;54434;50.096;20.082;2022-10-17T14:08:52;23.18;51.31
67641;SHT31;54434;50.096;20.082;2022-10-17T14:11:35;23.15;51.21
67641;SHT31;54434;50.096;20.082;2022-10-17T14:14:21;23.10;51.46
67641;SHT31;54434;50.096;20.082;2022-10-17T14:16:58;23.08;51.90
67641;SHT31;54434;50.096;20.082;2022-10-17T14:19:35;23.06;51.82
67641;SHT31;54434;50.096;20.082;2022-10-17T14:22:17;23.01;51.69
67641;SHT31;54434;50.096;20.082;2022-10-17T14:24:59;22.99;52.16
67641;SHT31;54434;50.096;20.082;2022-10-17T14:27:51;22.97;51.61
67641;SHT31;54434;50.096;20.082;2022-10-17T14:30:36;22.95;52.13
67641;SHT31;54434;50.096;20.082;2022-10-17T14:33:27;22.90;52.46
67641;SHT31;54434;50.096;20.082;2022-10-17T14:36:07;22.87;52.16
67641;SHT31;54434;50.096;20.082;2022-10-17T14:38:47;22.84;52.24
67641;SHT31;54434;50.096;20.082;2022-10-17T14:41:25;22.79;52.17
67641;SHT31;54434;50.096;20.082;2022-10-17T14:44:20;22.75;52.16
67641;SHT31;54434;50.096;20.082;2022-10-17T14:47:02;22.70;52.84
67641;SHT31;54434;50.096;20.082;2022-10-17T14:50:20;22.65;52.78
67641;SHT31;54434;50.096;20.082;2022-10-17T14:53:04;22.59;52.43
67641;SHT31;54434;50.096;20.082;2022-10-17T14:55:57;22.55;52.77
67641;SHT31;54434;50.096;20.082;2022-10-17T14:58:36;22.51;52.61
67641;SHT31;54434;50.096;20.082;2022-10-17T15:01:12;22.46;52.72
67641;SHT31;54434;50.096;20.082;2022-10-17T15:03:48;22.44;52.49
67641;SHT31;54434;50.096;20.082;2022-10-17T15:06:26;22.41;52.79
67641;SHT31;54434;50.096;20.082;2022-10-17T15:09:04;22.36;52.88
67641;SHT31;54434;50.096;20.082;2022-10-17T15:11:40;22.32;53.16
67641;SHT31;54434;50.096;20.082;2022-10-17T15:14:16;22.23;53.50
67641;SHT31;54434;50.096;20.082;2022-10-17T15:16:52;22.15;53.57
67641;SHT31;54434;50.096;20.082;2022-10-17T15:19:28;22.06;54.08
67641;SHT31;54434;50.096;20.082;2022-10-17T15:22:04;21.94;54.54
67641;SHT31;54434;50.096;20.082;2022-10-17T15:24:40;21.82;55.26
67641;SHT31;54434;50.096;20.082;2022-10-17T15:27:18;21.66;55.93
67641;SHT31;54434;50.096;20.082;2022-10-17T15:29:56;21.51;56.53
67641;SHT31;54434;50.096;20.082;2022-10-17T15:32:32;21.36;56.68
67641;SHT31;54434;50.096;20.082;2022-10-17T15:35:09;21.22;57.50
67641;SHT31;54434;50.096;20.082;2022-10-17T15:37:45;21.01;58.46
67641;SHT31;54434;50.096;20.082;2022-10-17T15:40:24;20.82;58.79
67641;SHT31;54434;50.096;20.082;2022-10-17T15:43:01;20.64;59.36
67641;SHT31;54434;50.096;20.082;2022-10-17T15:45:36;20.47;59.87
67641;SHT31;54434;50.096;20.082;2022-10-17T15:48:17;20.28;60.39
67641;SHT31;54434;50.096;20.082;2022-10-17T15:51:01;20.07;61.04
67641;SHT31;54434;50.096;20.082;2022-10-17T15:53:37;19.89;61.57
67641;SHT31;54434;50.096;20.082;2022-10-17T15:56:19;19.69;62.03
67641;SHT31;54434;50.096;20.082;2022-10-17T15:58:57;19.48;62.60
67641;SHT31;54434;50.096;20.082;2022-10-17T16:01:35;19.28;63.24
67641;SHT31;54434;50.096;20.082;2022-10-17T16:04:14;19.10;63.73
67641;SHT31;54434;50.096;20.082;2022-10-17T16:06:49;18.94;64.20
67641;SHT31;54434;50.096;20.082;2022-10-17T16:09:25;18.76;64.62
67641;SHT31;54434;50.096;20.082;2022-10-17T16:12:02;18.59;65.01
67641;SHT31;54434;50.096;20.082;2022-10-17T16:14:43;18.41;65.50
67641;SHT31;54434;50.096;20.082;2022-10-17T16:17:19;18.26;65.98
67641;SHT31;54434;50.096;20.082;2022-10-17T16:19:55;18.10;66.40
67641;SHT31;54434;50.096;20.082;2022-10-17T16:22:32;17.99;66.70
67641;SHT31;54434;50.096;20.082;2022-10-17T16:25:21;17.86;67.19
67641;SHT31;54434;50.096;20.082;2022-10-17T16:27:59;17.70;67.59
67641;SHT31;54434;50.096;20.082;2022-10-17T16:30:40;17.56;68.03
67641;SHT31;54434;50.096;20.082;2022-10-17T16:33:16;17.42;68.41
67641;SHT31;54434;50.096;20.082;2022-10-17T16:35:52;17.29;68.70
67641;SHT31;54434;50.096;20.082;2022-10-17T16:38:28;17.16;69.02
67641;SHT31;54434;50.096;20.082;2022-10-17T16:41:04;17.01;69.26
67641;SHT31;54434;50.096;20.082;2022-10-17T16:43:54;16.87;69.74
67641;SHT31;54434;50.096;20.082;2022-10-17T16:46:35;16.75;69.96
67641;SHT31;54434;50.096;20.082;2022-10-17T16:49:11;16.64;70.29
67641;SHT31;54434;50.096;20.082;2022-10-17T16:51:48;16.52;70.54
67641;SHT31;54434;50.096;20.082;2022-10-17T16:54:24;16.42;70.88
67641;SHT31;54434;50.096;20.082;2022-10-17T16:57:00;16.34;71.14
67641;SHT31;54434;50.096;20.082;2022-10-17T16:59:37;16.20;71.61
67641;SHT31;54434;50.096;20.082;2022-10-17T17:02:13;16.10;72.00
67641;SHT31;54434;50.096;20.082;2022-10-17T17:04:51;16.01;72.12
67641;SHT31;54434;50.096;20.082;2022-10-17T17:07:27;15.94;72.27